ADDS METAR Data INFO
IDs: Format: Raw Decoded Include TAF

Data at: 1201 UTC 19 Nov 2017

METAR for:KMGY (Dayton/Wright Brothe, OH, US)
Text:KMGY 191153Z AUTO 28009KT 10SM OVC044 03/M01 A2989 RMK AO2 SLP125 60002 70056 T00331011 10056 20033 51023 $
Temperature: 3.3°C ( 38°F)
Dewpoint: -1.1°C ( 30°F) [RH = 73%]
Pressure (altimeter):29.89 inches Hg (1012.3 mb) [Sea level pressure: 1012.5 mb]
Winds:from the W (280 degrees) at 10 MPH (9 knots; 4.6 m/s)
Visibility:10 or more sm (16+ km)
Ceiling:4400 feet AGL
Clouds: overcast cloud deck at 4400 feet AGL
QC Flag:automated observation with no human augmentation; SOME DATA ABOVE MAY BE INACCURATE!!!"$" is an indication the sensor requires maintenance.